Time;durP1;ratioP1;P1;durP2;ratioP2;P2;SDS_P1;SDS_P2;PMS_P1;PMS_P2;Temp;Humidity;BMP_temperature;BMP_pressure;BME280_temperature;BME280_humidity;BME280_pressure;Samples;Min_cycle;Max_cycle;Signal;HPM_P1;HPM_P2
2023/07/07 00:11:37;;;;;;;7.75;5.00;;;;;;;15.82;57.60;100603.06;30856607;28;102275;-73
2023/07/07 00:26:38;;;;;;;10.43;5.10;;;;;;;15.63;58.37;100617.97;30855867;28;96681;-72
2023/07/07 00:41:39;;;;;;;9.82;4.95;;;;;;;15.47;59.45;100624.41;30854289;28;96937;-70
2023/07/07 00:56:44;;;;;;;6.57;4.43;;;;;;;15.32;60.25;100618.28;30852277;28;97361;-72
2023/07/07 01:11:46;;;;;;;9.70;4.83;;;;;;;15.07;60.78;100622.16;30852379;28;97129;-71
2023/07/07 01:27:02;;;;;;;7.60;4.40;;;;;;;14.85;61.41;100637.38;30851107;28;98027;-71
2023/07/07 01:42:14;;;;;;;8.37;4.93;;;;;;;14.67;62.19;100635.09;30850952;28;97546;-66
2023/07/07 01:57:16;;;;;;;;;;;;;;;14.45;62.72;100642.19;30854183;28;97247;-69
2023/07/07 02:12:16;;;;;;;11.37;4.40;;;;;;;14.33;63.51;100644.47;30869946;28;96856;-68
2023/07/07 02:27:17;;;;;;;9.23;4.90;;;;;;;14.19;63.82;100653.34;30864875;28;110835;-68
2023/07/07 02:42:18;;;;;;;13.27;5.53;;;;;;;14.09;64.60;100645.56;30865268;28;97699;-66
2023/07/07 02:57:19;;;;;;;10.40;5.03;;;;;;;13.97;65.21;100647.88;30863288;28;96718;-67
2023/07/07 03:12:19;;;;;;;10.77;5.28;;;;;;;13.96;65.56;100658.75;30860891;28;96754;-70
2023/07/07 03:27:19;;;;;;;12.80;5.85;;;;;;;14.18;66.11;100673.94;30858687;28;97380;-66
2023/07/07 03:42:20;;;;;;;14.57;6.10;;;;;;;14.42;66.25;100687.28;30854740;28;99317;-69
2023/07/07 03:57:20;;;;;;;13.68;5.00;;;;;;;14.71;66.37;100695.38;30853672;28;96701;-68
2023/07/07 04:12:20;;;;;;;15.23;5.03;;;;;;;14.99;66.21;100707.28;30855572;28;96787;-69
2023/07/07 04:27:21;;;;;;;11.13;5.50;;;;;;;15.41;66.52;100719.16;30854836;28;97290;-68
2023/07/07 04:42:22;;;;;;;18.25;6.15;;;;;;;15.91;65.96;100730.06;30853547;28;96783;-70
2023/07/07 04:57:22;;;;;;;10.82;6.63;;;;;;;16.30;65.70;100742.16;30828972;28;98455;-69
2023/07/07 05:12:22;;;;;;;11.85;5.85;;;;;;;17.06;64.87;100748.69;30836761;28;106831;-69
2023/07/07 05:27:23;;;;;;;12.93;4.78;;;;;;;17.91;63.19;100757.28;30823427;28;97510;-72
2023/07/07 05:42:23;;;;;;;7.00;3.53;;;;;;;18.82;60.75;100771.19;30861499;28;98700;-74
2023/07/07 05:57:23;;;;;;;7.85;3.45;;;;;;;19.82;57.90;100774.56;30857325;28;109576;-71
2023/07/07 06:12:23;;;;;;;5.43;2.65;;;;;;;20.57;55.18;100796.28;30843367;28;97424;-69
2023/07/07 06:27:24;;;;;;;7.07;2.97;;;;;;;21.13;52.58;100804.50;30845715;28;110000;-72
2023/07/07 06:42:24;;;;;;;4.90;2.77;;;;;;;21.93;50.03;100819.78;30838385;28;97374;-67
2023/07/07 06:57:25;;;;;;;7.50;2.60;;;;;;;22.70;47.34;100818.19;30838807;28;97470;-70
2023/07/07 07:12:25;;;;;;;7.68;2.30;;;;;;;23.39;45.37;100824.88;30845927;28;98898;-68
2023/07/07 07:27:26;;;;;;;4.40;2.20;;;;;;;24.31;42.82;100826.63;30844706;28;97661;-74
2023/07/07 07:42:26;;;;;;;3.47;1.90;;;;;;;25.28;40.03;100839.28;30851607;28;98194;-73
2023/07/07 07:57:26;;;;;;;2.67;1.67;;;;;;;26.22;37.21;100842.81;30837714;28;96984;-74
2023/07/07 08:12:27;;;;;;;5.43;2.50;;;;;;;26.86;35.32;100852.09;30839939;28;96973;-67
2023/07/07 08:27:27;;;;;;;7.50;2.35;;;;;;;27.81;34.21;100844.88;30830675;28;96835;-68
2023/07/07 08:42:40;;;;;;;3.60;1.95;;;;;;;28.49;32.00;100838.41;30831297;28;97462;-66
2023/07/07 08:57:54;;;;;;;3.17;1.53;;;;;;;28.99;30.77;100839.47;30832360;28;97215;-70
2023/07/07 09:13:00;;;;;;;3.73;1.83;;;;;;;30.47;28.40;100840.88;30843135;28;97393;-70
2023/07/07 09:28:03;;;;;;;5.70;1.70;;;;;;;30.91;26.11;100837.16;30865010;28;99452;-68
2023/07/07 09:43:30;;;;;;;6.53;1.63;;;;;;;31.28;25.23;100835.66;30855567;28;97697;-70
2023/07/07 09:58:38;;;;;;;2.70;1.60;;;;;;;31.35;24.86;100827.84;30852763;28;98610;-69
2023/07/07 10:13:38;;;;;;;6.43;1.80;;;;;;;31.54;24.07;100830.63;30849061;28;97688;-68
2023/07/07 10:28:39;;;;;;;9.05;2.17;;;;;;;30.88;25.57;100826.75;30843416;28;107896;-68
2023/07/07 10:43:40;;;;;;;2.88;1.65;;;;;;;31.03;25.34;100834.03;30844832;28;97205;-67
2023/07/07 10:59:05;;;;;;;4.72;1.75;;;;;;;31.99;23.64;100819.28;30842821;28;97461;-70
2023/07/07 11:14:29;;;;;;;3.03;1.73;;;;;;;32.68;22.04;100807.66;30841425;28;98764;-66
2023/07/07 11:29:55;;;;;;;6.93;1.70;;;;;;;30.82;24.77;100811.41;30841230;28;97659;-66
2023/07/07 11:45:33;;;;;;;5.40;1.47;;;;;;;30.87;24.36;100816.84;30840253;28;98485;-66
2023/07/07 12:01:00;;;;;;;3.17;1.40;;;;;;;31.27;23.80;100797.44;30837886;28;97457;-66
2023/07/07 12:16:09;;;;;;;6.13;1.67;;;;;;;32.17;22.57;100792.03;30830646;28;98094;-66
2023/07/07 12:31:11;;;;;;;5.10;1.63;;;;;;;31.69;22.63;100785.56;30832900;28;96854;-67
2023/07/07 12:46:36;;;;;;;3.47;1.70;;;;;;;30.99;22.76;100769.66;30830919;28;98385;-70
2023/07/07 13:01:39;;;;;;;2.53;1.70;;;;;;;30.51;23.54;100757.56;30832573;28;97745;-68
2023/07/07 13:16:39;;;;;;;5.43;2.00;;;;;;;30.54;24.01;100758.91;30834838;28;97519;-69
2023/07/07 13:31:42;;;;;;;7.78;1.90;;;;;;;31.28;23.45;100753.09;30831818;28;97198;-70
2023/07/07 13:46:44;;;;;;;3.03;1.70;;;;;;;31.15;23.30;100738.16;30831249;28;98904;-72
2023/07/07 14:01:44;;;;;;;3.00;1.73;;;;;;;30.74;23.47;100730.34;30841238;28;97432;-68
2023/07/07 14:16:50;;;;;;;5.60;1.80;;;;;;;30.23;23.94;100725.41;30859860;28;97195;-67
2023/07/07 14:31:51;;;;;;;3.70;1.53;;;;;;;29.58;24.75;100720.94;30862406;28;97140;-68
2023/07/07 14:46:51;;;;;;;3.43;2.07;;;;;;;28.98;24.44;100714.41;30861765;28;97004;-68
2023/07/07 15:01:56;;;;;;;4.35;1.73;;;;;;;28.39;25.29;100695.94;30862357;28;98466;-70
2023/07/07 15:16:56;;;;;;;3.30;1.70;;;;;;;28.06;25.80;100700.91;30860240;28;96977;-68
2023/07/07 15:31:57;;;;;;;3.85;1.90;;;;;;;27.69;25.86;100679.00;30859794;28;109902;-68
2023/07/07 15:46:58;;;;;;;2.70;1.70;;;;;;;27.43;26.87;100682.81;30855803;28;97401;-69
2023/07/07 16:02:00;;;;;;;4.23;1.63;;;;;;;27.36;27.03;100683.88;30853289;28;97352;-69
2023/07/07 16:17:00;;;;;;;2.63;1.60;;;;;;;27.31;27.27;100688.50;30854355;28;113080;-69
2023/07/07 16:32:01;;;;;;;3.13;1.70;;;;;;;27.11;27.43;100694.75;30852406;28;113071;-71
2023/07/07 16:47:01;;;;;;;3.50;1.55;;;;;;;26.90;28.07;100700.16;30853931;28;96719;-72
2023/07/07 17:02:02;;;;;;;2.97;1.70;;;;;;;26.57;27.59;100701.31;30854465;28;97443;-73
2023/07/07 17:17:02;;;;;;;2.97;1.63;;;;;;;26.24;28.64;100704.13;30849735;28;97617;-73
2023/07/07 17:32:03;;;;;;;4.75;1.90;;;;;;;25.85;29.48;100696.16;30857353;28;96654;-68
2023/07/07 17:47:03;;;;;;;3.42;1.70;;;;;;;25.42;30.48;100703.41;30867213;28;97697;-67
2023/07/07 18:02:09;;;;;;;2.97;1.60;;;;;;;25.13;31.33;100709.88;30859851;28;97278;-69
2023/07/07 18:17:12;;;;;;;6.47;1.80;;;;;;;25.22;31.59;100699.34;30858538;28;97506;-71
2023/07/07 18:32:13;;;;;;;4.37;1.70;;;;;;;25.15;31.90;100702.28;30857393;28;96709;-72
2023/07/07 18:47:14;;;;;;;5.65;2.75;;;;;;;24.89;32.44;100705.75;30854305;28;97354;-71
2023/07/07 19:02:14;;;;;;;22.50;13.87;;;;;;;24.47;34.06;100702.47;30847696;28;96820;-65
2023/07/07 19:17:15;;;;;;;13.30;8.60;;;;;;;24.01;35.28;100717.28;30852538;28;97552;-68
2023/07/07 19:32:15;;;;;;;22.65;11.43;;;;;;;23.53;36.60;100722.94;30851841;28;97552;-66
2023/07/07 19:47:15;;;;;;;13.23;6.85;;;;;;;22.95;37.98;100717.44;30877333;28;99431;-72
2023/07/07 20:02:17;;;;;;;;;;;;;;;22.52;39.80;100718.69;30846201;28;110381;-65
2023/07/07 20:17:17;;;;;;;19.37;10.70;;;;;;;22.15;41.16;100725.13;30770215;28;96959;-64
2023/07/07 20:32:17;;;;;;;16.60;8.43;;;;;;;21.74;42.51;100731.41;30824695;28;98104;-64
2023/07/07 20:47:20;;;;;;;30.47;18.13;;;;;;;21.33;43.20;100733.00;30836505;28;100303;-69
2023/07/07 21:02:24;;;;;;;21.00;12.30;;;;;;;20.95;44.42;100748.44;30843368;28;96718;-70
2023/07/07 21:17:24;;;;;;;23.40;12.47;;;;;;;20.57;45.69;100753.00;30843703;28;97136;-75
2023/07/07 21:32:24;;;;;;;13.20;6.33;;;;;;;20.40;46.63;100751.88;30841037;28;109625;-68
2023/07/07 21:47:25;;;;;;;10.27;6.13;;;;;;;20.14;47.06;100753.75;30840931;28;114988;-68
2023/07/07 22:02:25;;;;;;;9.43;5.27;;;;;;;19.93;48.17;100769.31;30842410;28;98109;-71
2023/07/07 22:17:25;;;;;;;15.23;5.55;;;;;;;19.75;48.75;100771.88;30859026;28;96826;-73
2023/07/07 22:32:25;;;;;;;13.07;6.15;;;;;;;19.35;49.42;100769.38;30867994;28;114250;-70
2023/07/07 22:47:26;;;;;;;11.25;6.10;;;;;;;19.03;50.95;100766.59;30867043;28;113398;-73
2023/07/07 23:02:26;;;;;;;9.05;5.40;;;;;;;18.92;52.27;100768.06;30865531;28;112520;-74
2023/07/07 23:17:33;;;;;;;11.35;4.93;;;;;;;18.88;53.16;100764.97;30864991;28;109573;-75
2023/07/07 23:32:34;;;;;;;8.47;4.70;;;;;;;18.46;53.94;100769.75;30862455;28;96782;-75
2023/07/07 23:47:34;;;;;;;8.70;4.20;;;;;;;18.14;55.30;100756.06;30862227;28;97307;-76
